sensor_id;sensor_type;location;lat;lon;timestamp;pressure;altitude;pressure_sealevel;temperature;humidity
42691;BME280;28306;55.744;37.578;2023-04-27T00:00:23;99090.75;;;20.78;32.46
42691;BME280;28306;55.744;37.578;2023-04-27T00:02:50;99093.66;;;20.72;32.90
42691;BME280;28306;55.744;37.578;2023-04-27T00:05:16;99098.19;;;20.66;32.81
42691;BME280;28306;55.744;37.578;2023-04-27T00:07:41;99097.34;;;20.65;32.95
42691;BME280;28306;55.744;37.578;2023-04-27T00:10:07;99103.22;;;20.62;32.98
42691;BME280;28306;55.744;37.578;2023-04-27T00:12:33;99096.47;;;20.60;33.17
42691;BME280;28306;55.744;37.578;2023-04-27T00:14:58;99096.56;;;20.48;33.48
42691;BME280;28306;55.744;37.578;2023-04-27T00:17:24;99096.44;;;20.38;33.42
42691;BME280;28306;55.744;37.578;2023-04-27T00:19:49;99103.88;;;20.30;33.53
42691;BME280;28306;55.744;37.578;2023-04-27T00:22:15;99102.16;;;20.24;34.06
42691;BME280;28306;55.744;37.578;2023-04-27T00:24:40;99109.94;;;20.21;33.72
42691;BME280;28306;55.744;37.578;2023-04-27T00:27:06;99101.75;;;20.15;33.40
42691;BME280;28306;55.744;37.578;2023-04-27T00:29:32;99111.34;;;20.06;34.22
42691;BME280;28306;55.744;37.578;2023-04-27T00:31:58;99110.69;;;19.99;34.25
42691;BME280;28306;55.744;37.578;2023-04-27T00:34:24;99111.50;;;19.99;33.82
42691;BME280;28306;55.744;37.578;2023-04-27T00:36:49;99112.59;;;19.98;34.27
42691;BME280;28306;55.744;37.578;2023-04-27T00:39:15;99109.41;;;20.02;33.97
42691;BME280;28306;55.744;37.578;2023-04-27T00:41:41;99100.63;;;19.94;34.46
42691;BME280;28306;55.744;37.578;2023-04-27T00:44:06;99102.59;;;19.82;34.00
42691;BME280;28306;55.744;37.578;2023-04-27T00:46:33;99097.19;;;19.82;34.34
42691;BME280;28306;55.744;37.578;2023-04-27T00:48:59;99100.69;;;19.83;34.57
42691;BME280;28306;55.744;37.578;2023-04-27T00:51:25;99101.28;;;19.85;34.49
42691;BME280;28306;55.744;37.578;2023-04-27T00:53:53;99103.16;;;19.84;34.63
42691;BME280;28306;55.744;37.578;2023-04-27T00:56:20;99106.44;;;19.86;34.56
42691;BME280;28306;55.744;37.578;2023-04-27T00:58:47;99103.06;;;19.79;34.91
42691;BME280;28306;55.744;37.578;2023-04-27T01:01:12;99092.97;;;19.74;35.05
42691;BME280;28306;55.744;37.578;2023-04-27T01:03:38;99096.16;;;19.71;35.02
42691;BME280;28306;55.744;37.578;2023-04-27T01:06:04;99098.84;;;19.71;35.12
42691;BME280;28306;55.744;37.578;2023-04-27T01:08:30;99096.09;;;19.66;35.00
42691;BME280;28306;55.744;37.578;2023-04-27T01:10:55;99108.59;;;19.72;34.78
42691;BME280;28306;55.744;37.578;2023-04-27T01:13:21;99100.03;;;19.75;34.84
42691;BME280;28306;55.744;37.578;2023-04-27T01:15:46;99104.97;;;19.78;34.69
42691;BME280;28306;55.744;37.578;2023-04-27T01:18:12;99103.88;;;19.79;35.26
42691;BME280;28306;55.744;37.578;2023-04-27T01:20:38;99104.97;;;19.78;35.39
42691;BME280;28306;55.744;37.578;2023-04-27T01:23:03;99104.00;;;19.73;35.18
42691;BME280;28306;55.744;37.578;2023-04-27T01:25:29;99102.28;;;19.67;35.33
42691;BME280;28306;55.744;37.578;2023-04-27T01:27:54;99098.69;;;19.61;35.47
42691;BME280;28306;55.744;37.578;2023-04-27T01:30:20;99102.44;;;19.60;35.64
42691;BME280;28306;55.744;37.578;2023-04-27T01:32:48;99103.97;;;19.56;35.27
42691;BME280;28306;55.744;37.578;2023-04-27T01:35:17;99099.44;;;19.56;35.16
42691;BME280;28306;55.744;37.578;2023-04-27T01:37:43;99100.91;;;19.64;35.13
42691;BME280;28306;55.744;37.578;2023-04-27T01:40:08;99098.94;;;19.59;35.33
42691;BME280;28306;55.744;37.578;2023-04-27T01:42:34;99100.16;;;19.52;35.40
42691;BME280;28306;55.744;37.578;2023-04-27T01:44:59;99101.59;;;19.42;35.69
42691;BME280;28306;55.744;37.578;2023-04-27T01:47:25;99102.09;;;19.39;35.73
42691;BME280;28306;55.744;37.578;2023-04-27T01:49:51;99109.94;;;19.41;35.90
42691;BME280;28306;55.744;37.578;2023-04-27T01:52:17;99104.06;;;19.44;35.90
42691;BME280;28306;55.744;37.578;2023-04-27T01:54:43;99111.47;;;19.37;35.70
42691;BME280;28306;55.744;37.578;2023-04-27T01:57:08;99108.94;;;19.30;35.58
42691;BME280;28306;55.744;37.578;2023-04-27T01:59:34;99112.81;;;19.22;35.96
42691;BME280;28306;55.744;37.578;2023-04-27T02:02:00;99109.19;;;19.17;35.92
42691;BME280;28306;55.744;37.578;2023-04-27T02:04:25;99105.22;;;19.19;36.20
42691;BME280;28306;55.744;37.578;2023-04-27T02:06:51;99109.97;;;19.29;36.00
42691;BME280;28306;55.744;37.578;2023-04-27T02:09:16;99112.06;;;19.39;35.74
42691;BME280;28306;55.744;37.578;2023-04-27T02:11:42;99114.38;;;19.47;35.51
42691;BME280;28306;55.744;37.578;2023-04-27T02:14:07;99113.41;;;19.53;35.73
42691;BME280;28306;55.744;37.578;2023-04-27T02:16:33;99116.91;;;19.54;35.74
42691;BME280;28306;55.744;37.578;2023-04-27T02:18:58;99125.25;;;19.52;35.47
42691;BME280;28306;55.744;37.578;2023-04-27T02:21:24;99130.16;;;19.55;35.37
42691;BME280;28306;55.744;37.578;2023-04-27T02:23:49;99132.53;;;19.52;35.94
42691;BME280;28306;55.744;37.578;2023-04-27T02:26:16;99137.31;;;19.50;35.64
42691;BME280;28306;55.744;37.578;2023-04-27T02:28:43;99137.00;;;19.46;35.81
42691;BME280;28306;55.744;37.578;2023-04-27T02:31:09;99139.38;;;19.42;36.06
42691;BME280;28306;55.744;37.578;2023-04-27T02:33:35;99139.84;;;19.39;36.05
42691;BME280;28306;55.744;37.578;2023-04-27T02:36:00;99149.00;;;19.38;36.15
42691;BME280;28306;55.744;37.578;2023-04-27T02:38:28;99149.59;;;19.40;36.47
42691;BME280;28306;55.744;37.578;2023-04-27T02:40:53;99143.84;;;19.37;36.26
42691;BME280;28306;55.744;37.578;2023-04-27T02:43:19;99146.44;;;19.32;36.26
42691;BME280;28306;55.744;37.578;2023-04-27T02:45:45;99155.03;;;19.29;36.09
42691;BME280;28306;55.744;37.578;2023-04-27T02:48:10;99147.50;;;19.31;35.60
42691;BME280;28306;55.744;37.578;2023-04-27T02:50:39;99151.38;;;19.35;35.77
42691;BME280;28306;55.744;37.578;2023-04-27T02:53:05;99152.41;;;19.34;35.76
42691;BME280;28306;55.744;37.578;2023-04-27T02:55:31;99157.44;;;19.42;35.51
42691;BME280;28306;55.744;37.578;2023-04-27T02:57:56;99165.28;;;19.43;35.54
42691;BME280;28306;55.744;37.578;2023-04-27T03:00:22;99164.06;;;19.51;35.13
42691;BME280;28306;55.744;37.578;2023-04-27T03:02:48;99166.91;;;19.44;35.90
42691;BME280;28306;55.744;37.578;2023-04-27T03:05:13;99163.91;;;19.41;36.00
42691;BME280;28306;55.744;37.578;2023-04-27T03:07:38;99167.31;;;19.36;35.79
42691;BME280;28306;55.744;37.578;2023-04-27T03:10:04;99172.00;;;19.29;36.41
42691;BME280;28306;55.744;37.578;2023-04-27T03:12:30;99166.63;;;19.29;36.32
42691;BME280;28306;55.744;37.578;2023-04-27T03:14:57;99172.13;;;19.34;36.79
42691;BME280;28306;55.744;37.578;2023-04-27T03:17:24;99174.44;;;19.42;36.34
42691;BME280;28306;55.744;37.578;2023-04-27T03:19:49;99178.63;;;19.50;36.07
42691;BME280;28306;55.744;37.578;2023-04-27T03:22:15;99174.13;;;19.56;36.29
42691;BME280;28306;55.744;37.578;2023-04-27T03:24:40;99166.72;;;19.63;36.34
42691;BME280;28306;55.744;37.578;2023-04-27T03:27:08;99175.16;;;19.67;35.62
42691;BME280;28306;55.744;37.578;2023-04-27T03:29:33;99176.31;;;19.71;35.80
42691;BME280;28306;55.744;37.578;2023-04-27T03:31:59;99184.97;;;19.73;35.35
42691;BME280;28306;55.744;37.578;2023-04-27T03:34:24;99183.47;;;19.77;35.35
42691;BME280;28306;55.744;37.578;2023-04-27T03:36:50;99186.75;;;19.79;35.76
42691;BME280;28306;55.744;37.578;2023-04-27T03:39:15;99194.94;;;19.84;35.39
42691;BME280;28306;55.744;37.578;2023-04-27T03:41:41;99203.06;;;20.01;34.99
42691;BME280;28306;55.744;37.578;2023-04-27T03:44:06;99203.56;;;20.15;35.15
42691;BME280;28306;55.744;37.578;2023-04-27T03:46:32;99210.47;;;20.23;35.10
42691;BME280;28306;55.744;37.578;2023-04-27T03:48:59;99201.06;;;20.25;34.96
42691;BME280;28306;55.744;37.578;2023-04-27T03:51:25;99208.44;;;20.30;34.69
42691;BME280;28306;55.744;37.578;2023-04-27T03:53:51;99203.59;;;20.32;34.76
42691;BME280;28306;55.744;37.578;2023-04-27T03:56:17;99202.09;;;20.24;34.65
42691;BME280;28306;55.744;37.578;2023-04-27T03:58:43;99203.09;;;20.18;34.90
42691;BME280;28306;55.744;37.578;2023-04-27T04:01:16;99205.78;;;20.18;35.03
42691;BME280;28306;55.744;37.578;2023-04-27T04:03:43;99205.13;;;20.28;34.88
42691;BME280;28306;55.744;37.578;2023-04-27T04:06:10;99215.78;;;20.34;34.91
42691;BME280;28306;55.744;37.578;2023-04-27T04:08:37;99207.28;;;20.43;34.78
42691;BME280;28306;55.744;37.578;2023-04-27T04:11:02;99209.00;;;20.49;34.76
42691;BME280;28306;55.744;37.578;2023-04-27T04:13:28;99212.25;;;20.51;34.65
42691;BME280;28306;55.744;37.578;2023-04-27T04:16:04;99209.00;;;20.49;34.85
42691;BME280;28306;55.744;37.578;2023-04-27T04:18:30;99214.47;;;20.54;34.49
42691;BME280;28306;55.744;37.578;2023-04-27T04:20:55;99213.09;;;20.68;33.87
42691;BME280;28306;55.744;37.578;2023-04-27T04:23:21;99213.25;;;20.79;33.74
42691;BME280;28306;55.744;37.578;2023-04-27T04:25:47;99224.13;;;20.84;33.51
42691;BME280;28306;55.744;37.578;2023-04-27T04:28:13;99215.84;;;20.91;33.55
42691;BME280;28306;55.744;37.578;2023-04-27T04:30:38;99218.88;;;20.94;33.25
42691;BME280;28306;55.744;37.578;2023-04-27T04:33:04;99221.50;;;20.89;33.29
42691;BME280;28306;55.744;37.578;2023-04-27T04:35:30;99222.88;;;20.92;33.84
42691;BME280;28306;55.744;37.578;2023-04-27T04:37:57;99225.03;;;20.90;33.26
42691;BME280;28306;55.744;37.578;2023-04-27T04:40:23;99225.44;;;20.81;33.26
42691;BME280;28306;55.744;37.578;2023-04-27T04:42:49;99224.69;;;20.86;33.21
42691;BME280;28306;55.744;37.578;2023-04-27T04:45:14;99227.88;;;21.00;32.99
42691;BME280;28306;55.744;37.578;2023-04-27T04:47:39;99224.41;;;21.04;33.07
42691;BME280;28306;55.744;37.578;2023-04-27T04:50:05;99227.19;;;21.10;32.74
42691;BME280;28306;55.744;37.578;2023-04-27T04:52:33;99228.31;;;21.14;32.60
42691;BME280;28306;55.744;37.578;2023-04-27T04:54:59;99222.59;;;21.10;32.81
42691;BME280;28306;55.744;37.578;2023-04-27T04:57:25;99222.16;;;21.18;32.58
42691;BME280;28306;55.744;37.578;2023-04-27T04:59:51;99230.47;;;21.34;32.43
42691;BME280;28306;55.744;37.578;2023-04-27T05:02:16;99231.69;;;21.43;32.30
42691;BME280;28306;55.744;37.578;2023-04-27T05:04:42;99234.78;;;21.52;32.32
42691;BME280;28306;55.744;37.578;2023-04-27T05:07:07;99232.06;;;21.52;31.63
42691;BME280;28306;55.744;37.578;2023-04-27T05:09:35;99236.16;;;21.54;32.12
42691;BME280;28306;55.744;37.578;2023-04-27T05:12:00;99239.69;;;21.55;32.11
42691;BME280;28306;55.744;37.578;2023-04-27T05:14:26;99236.84;;;21.67;31.87
42691;BME280;28306;55.744;37.578;2023-04-27T05:16:51;99236.94;;;21.77;31.57
42691;BME280;28306;55.744;37.578;2023-04-27T05:19:17;99234.00;;;21.78;31.41
42691;BME280;28306;55.744;37.578;2023-04-27T05:21:45;99238.50;;;21.95;31.57
42691;BME280;28306;55.744;37.578;2023-04-27T05:24:11;99238.91;;;22.09;30.79
42691;BME280;28306;55.744;37.578;2023-04-27T05:26:40;99248.50;;;22.22;30.70
42691;BME280;28306;55.744;37.578;2023-04-27T05:29:06;99245.97;;;22.37;30.79
42691;BME280;28306;55.744;37.578;2023-04-27T05:31:32;99246.88;;;22.48;30.38
42691;BME280;28306;55.744;37.578;2023-04-27T05:33:57;99248.56;;;22.54;30.08
42691;BME280;28306;55.744;37.578;2023-04-27T05:36:23;99238.88;;;22.63;30.26
42691;BME280;28306;55.744;37.578;2023-04-27T05:38:48;99239.97;;;22.67;29.44
42691;BME280;28306;55.744;37.578;2023-04-27T05:41:13;99244.56;;;22.62;29.54
42691;BME280;28306;55.744;37.578;2023-04-27T05:43:39;99245.00;;;22.54;29.98
42691;BME280;28306;55.744;37.578;2023-04-27T05:46:04;99243.94;;;22.55;29.59
42691;BME280;28306;55.744;37.578;2023-04-27T05:48:30;99249.97;;;22.62;30.12
42691;BME280;28306;55.744;37.578;2023-04-27T05:50:59;99246.78;;;22.75;29.50
42691;BME280;28306;55.744;37.578;2023-04-27T05:53:25;99241.13;;;22.82;30.07
42691;BME280;28306;55.744;37.578;2023-04-27T05:55:51;99241.19;;;22.87;29.24
42691;BME280;28306;55.744;37.578;2023-04-27T05:58:16;99237.44;;;22.93;29.61
42691;BME280;28306;55.744;37.578;2023-04-27T06:00:42;99246.41;;;22.99;29.07
42691;BME280;28306;55.744;37.578;2023-04-27T06:03:07;99240.47;;;23.07;29.16
42691;BME280;28306;55.744;37.578;2023-04-27T06:05:33;99241.63;;;23.16;29.19
42691;BME280;28306;55.744;37.578;2023-04-27T06:07:59;99241.16;;;23.25;28.99
42691;BME280;28306;55.744;37.578;2023-04-27T06:10:24;99243.34;;;23.28;28.77
42691;BME280;28306;55.744;37.578;2023-04-27T06:12:49;99242.50;;;23.22;29.07
42691;BME280;28306;55.744;37.578;2023-04-27T06:15:15;99243.63;;;23.26;29.15
42691;BME280;28306;55.744;37.578;2023-04-27T06:17:41;99247.41;;;23.30;29.29
42691;BME280;28306;55.744;37.578;2023-04-27T06:20:08;99250.44;;;23.39;29.00
42691;BME280;28306;55.744;37.578;2023-04-27T06:22:37;99249.41;;;23.50;28.91
42691;BME280;28306;55.744;37.578;2023-04-27T06:25:05;99254.31;;;23.53;28.61
42691;BME280;28306;55.744;37.578;2023-04-27T06:27:32;99253.25;;;23.60;28.46
42691;BME280;28306;55.744;37.578;2023-04-27T06:29:57;99266.03;;;23.64;28.47
42691;BME280;28306;55.744;37.578;2023-04-27T06:32:23;99254.63;;;23.67;27.84
42691;BME280;28306;55.744;37.578;2023-04-27T06:34:48;99258.16;;;23.68;27.77
42691;BME280;28306;55.744;37.578;2023-04-27T06:37:14;99257.09;;;23.69;28.14
42691;BME280;28306;55.744;37.578;2023-04-27T06:39:42;99257.88;;;23.69;28.69
42691;BME280;28306;55.744;37.578;2023-04-27T06:42:07;99255.47;;;23.78;28.20
42691;BME280;28306;55.744;37.578;2023-04-27T06:44:33;99258.19;;;23.83;28.26
42691;BME280;28306;55.744;37.578;2023-04-27T06:46:58;99255.25;;;23.90;27.76
42691;BME280;28306;55.744;37.578;2023-04-27T06:49:24;99259.34;;;23.92;27.24
42691;BME280;28306;55.744;37.578;2023-04-27T06:51:49;99261.53;;;23.96;27.78
42691;BME280;28306;55.744;37.578;2023-04-27T06:54:15;99259.63;;;23.96;27.63
42691;BME280;28306;55.744;37.578;2023-04-27T06:56:40;99269.16;;;23.99;27.11
42691;BME280;28306;55.744;37.578;2023-04-27T06:59:06;99259.63;;;23.96;27.55
42691;BME280;28306;55.744;37.578;2023-04-27T07:01:32;99265.59;;;23.93;27.29
42691;BME280;28306;55.744;37.578;2023-04-27T07:03:58;99266.13;;;23.90;28.10
42691;BME280;28306;55.744;37.578;2023-04-27T07:06:23;99267.22;;;23.94;27.91
42691;BME280;28306;55.744;37.578;2023-04-27T07:08:50;99265.88;;;23.97;27.58
42691;BME280;28306;55.744;37.578;2023-04-27T07:11:15;99270.53;;;24.01;27.07
42691;BME280;28306;55.744;37.578;2023-04-27T07:13:41;99255.03;;;24.02;27.41
42691;BME280;28306;55.744;37.578;2023-04-27T07:16:06;99257.19;;;24.05;27.75
42691;BME280;28306;55.744;37.578;2023-04-27T07:18:32;99260.19;;;24.08;27.15
42691;BME280;28306;55.744;37.578;2023-04-27T07:20:58;99257.75;;;24.12;27.61
42691;BME280;28306;55.744;37.578;2023-04-27T07:23:23;99257.75;;;24.12;26.99
42691;BME280;28306;55.744;37.578;2023-04-27T07:25:49;99258.84;;;24.11;26.66
42691;BME280;28306;55.744;37.578;2023-04-27T07:28:14;99266.72;;;24.13;27.42
42691;BME280;28306;55.744;37.578;2023-04-27T07:30:40;99262.38;;;24.11;26.85
42691;BME280;28306;55.744;37.578;2023-04-27T07:33:06;99265.09;;;24.11;26.59
42691;BME280;28306;55.744;37.578;2023-04-27T07:35:32;99264.56;;;24.09;27.21
42691;BME280;28306;55.744;37.578;2023-04-27T07:37:58;99267.53;;;24.13;26.96
42691;BME280;28306;55.744;37.578;2023-04-27T07:40:26;99265.66;;;24.19;27.02
42691;BME280;28306;55.744;37.578;2023-04-27T07:42:52;99267.84;;;24.27;27.13
42691;BME280;28306;55.744;37.578;2023-04-27T07:45:17;99270.28;;;24.39;27.06
42691;BME280;28306;55.744;37.578;2023-04-27T07:47:43;99267.84;;;24.47;26.38
42691;BME280;28306;55.744;37.578;2023-04-27T07:50:09;99270.28;;;24.49;26.44
42691;BME280;28306;55.744;37.578;2023-04-27T07:52:34;99267.03;;;24.52;26.13
42691;BME280;28306;55.744;37.578;2023-04-27T07:55:00;99274.66;;;24.50;26.54
42691;BME280;28306;55.744;37.578;2023-04-27T07:57:26;99277.38;;;24.50;26.36
42691;BME280;28306;55.744;37.578;2023-04-27T07:59:51;99278.16;;;24.56;26.44
42691;BME280;28306;55.744;37.578;2023-04-27T08:02:17;99277.13;;;24.57;26.03
42691;BME280;28306;55.744;37.578;2023-04-27T08:04:42;99268.13;;;24.56;26.10
42691;BME280;28306;55.744;37.578;2023-04-27T08:07:08;99274.63;;;24.55;25.99
42691;BME280;28306;55.744;37.578;2023-04-27T08:09:33;99276.81;;;24.53;26.14
42691;BME280;28306;55.744;37.578;2023-04-27T08:11:59;99271.91;;;24.55;25.97
42691;BME280;28306;55.744;37.578;2023-04-27T08:14:24;99267.03;;;24.57;26.66
42691;BME280;28306;55.744;37.578;2023-04-27T08:16:50;99275.50;;;24.61;26.69
42691;BME280;28306;55.744;37.578;2023-04-27T08:19:16;99274.66;;;24.60;26.53
42691;BME280;28306;55.744;37.578;2023-04-27T08:21:42;99269.50;;;24.59;26.52
42691;BME280;28306;55.744;37.578;2023-04-27T08:24:08;99273.06;;;24.59;26.54
42691;BME280;28306;55.744;37.578;2023-04-27T08:26:33;99267.34;;;24.61;26.44
42691;BME280;28306;55.744;37.578;2023-04-27T08:28:59;99272.50;;;24.68;26.53
42691;BME280;28306;55.744;37.578;2023-04-27T08:31:25;99274.66;;;24.76;26.07
42691;BME280;28306;55.744;37.578;2023-04-27T08:33:52;99270.84;;;24.77;26.16
42691;BME280;28306;55.744;37.578;2023-04-27T08:36:18;99269.47;;;24.79;26.43
42691;BME280;28306;55.744;37.578;2023-04-27T08:38:43;99260.50;;;24.79;26.24
42691;BME280;28306;55.744;37.578;2023-04-27T08:41:09;99263.50;;;24.77;25.91
42691;BME280;28306;55.744;37.578;2023-04-27T08:43:34;99264.31;;;24.78;26.43
42691;BME280;28306;55.744;37.578;2023-04-27T08:46:00;99261.06;;;24.86;26.40
42691;BME280;28306;55.744;37.578;2023-04-27T08:48:26;99265.13;;;24.94;26.17
42691;BME280;28306;55.744;37.578;2023-04-27T08:50:52;99261.28;;;24.95;26.21
42691;BME280;28306;55.744;37.578;2023-04-27T08:53:21;99261.84;;;24.97;26.09
42691;BME280;28306;55.744;37.578;2023-04-27T08:55:47;99264.31;;;24.98;26.11
42691;BME280;28306;55.744;37.578;2023-04-27T08:58:12;99258.59;;;25.00;26.09
42691;BME280;28306;55.744;37.578;2023-04-27T09:00:38;99271.34;;;25.05;25.96
42691;BME280;28306;55.744;37.578;2023-04-27T09:03:25;99270.78;;;25.08;26.09
42691;BME280;28306;55.744;37.578;2023-04-27T09:05:50;99272.97;;;25.11;25.94
42691;BME280;28306;55.744;37.578;2023-04-27T09:08:16;99275.13;;;25.14;25.62
42691;BME280;28306;55.744;37.578;2023-04-27T09:10:50;99278.41;;;25.16;25.48
42691;BME280;28306;55.744;37.578;2023-04-27T09:13:17;99275.13;;;25.19;26.11
42691;BME280;28306;55.744;37.578;2023-04-27T09:18:11;99273.19;;;25.25;25.77
42691;BME280;28306;55.744;37.578;2023-04-27T09:20:45;99279.50;;;25.30;25.98
42691;BME280;28306;55.744;37.578;2023-04-27T09:23:21;99272.97;;;25.31;25.67
42691;BME280;28306;55.744;37.578;2023-04-27T09:25:49;99272.41;;;25.29;25.89
42691;BME280;28306;55.744;37.578;2023-04-27T09:28:14;99270.78;;;25.28;25.90
42691;BME280;28306;55.744;37.578;2023-04-27T09:30:40;99277.84;;;25.29;26.01
42691;BME280;28306;55.744;37.578;2023-04-27T09:33:06;99276.75;;;25.30;25.83
42691;BME280;28306;55.744;37.578;2023-04-27T09:35:31;99269.13;;;25.32;25.86
42691;BME280;28306;55.744;37.578;2023-04-27T09:37:57;99272.97;;;25.31;26.09
42691;BME280;28306;55.744;37.578;2023-04-27T09:40:24;99266.16;;;25.29;26.10
42691;BME280;28306;55.744;37.578;2023-04-27T09:42:54;99262.06;;;25.31;25.92
42691;BME280;28306;55.744;37.578;2023-04-27T09:45:21;99266.13;;;25.34;26.06
42691;BME280;28306;55.744;37.578;2023-04-27T09:47:47;99262.31;;;25.35;25.73
42691;BME280;28306;55.744;37.578;2023-04-27T09:50:13;99257.94;;;25.34;26.02
42691;BME280;28306;55.744;37.578;2023-04-27T09:52:38;99260.94;;;25.38;26.12
42691;BME280;28306;55.744;37.578;2023-04-27T09:55:04;99263.09;;;25.46;25.71
42691;BME280;28306;55.744;37.578;2023-04-27T10:00:40;99261.91;;;25.62;25.70
42691;BME280;28306;55.744;37.578;2023-04-27T10:03:13;99268.16;;;25.68;25.38
42691;BME280;28306;55.744;37.578;2023-04-27T10:08:10;99265.94;;;25.75;25.29
42691;BME280;28306;55.744;37.578;2023-04-27T10:10:45;99264.06;;;25.76;24.99
42691;BME280;28306;55.744;37.578;2023-04-27T10:13:19;99271.66;;;25.79;25.35
42691;BME280;28306;55.744;37.578;2023-04-27T10:15:44;99276.28;;;25.78;25.32
42691;BME280;28306;55.744;37.578;2023-04-27T10:18:10;99271.94;;;25.77;25.01
42691;BME280;28306;55.744;37.578;2023-04-27T10:20:36;99268.09;;;25.78;25.34
42691;BME280;28306;55.744;37.578;2023-04-27T10:23:02;99263.78;;;25.77;25.53
42691;BME280;28306;55.744;37.578;2023-04-27T10:25:28;99273.31;;;25.75;25.39
42691;BME280;28306;55.744;37.578;2023-04-27T10:28:00;99270.03;;;25.78;25.66
42691;BME280;28306;55.744;37.578;2023-04-27T10:30:33;99268.66;;;25.80;25.65
42691;BME280;28306;55.744;37.578;2023-04-27T10:33:03;99262.38;;;25.85;25.65
42691;BME280;28306;55.744;37.578;2023-04-27T10:38:31;99262.88;;;25.87;25.45
42691;BME280;28306;55.744;37.578;2023-04-27T10:43:25;99266.13;;;25.94;25.33
42691;BME280;28306;55.744;37.578;2023-04-27T10:45:54;99270.19;;;25.97;24.87
42691;BME280;28306;55.744;37.578;2023-04-27T10:48:20;99275.38;;;25.98;25.22
42691;BME280;28306;55.744;37.578;2023-04-27T10:50:45;99274.81;;;26.01;25.29
42691;BME280;28306;55.744;37.578;2023-04-27T10:53:12;99277.50;;;26.06;24.64
42691;BME280;28306;55.744;37.578;2023-04-27T10:55:38;99270.94;;;26.13;25.04
42691;BME280;28306;55.744;37.578;2023-04-27T10:58:04;99279.34;;;26.21;25.05
42691;BME280;28306;55.744;37.578;2023-04-27T11:00:33;99275.19;;;26.29;25.03
42691;BME280;28306;55.744;37.578;2023-04-27T11:05:59;99280.88;;;26.33;24.65
42691;BME280;28306;55.744;37.578;2023-04-27T11:08:25;99284.47;;;26.28;24.72
42691;BME280;28306;55.744;37.578;2023-04-27T11:10:50;99295.94;;;26.25;24.63
42691;BME280;28306;55.744;37.578;2023-04-27T11:13:18;99298.44;;;26.21;24.78
42691;BME280;28306;55.744;37.578;2023-04-27T11:18:12;99311.56;;;26.14;25.05
42691;BME280;28306;55.744;37.578;2023-04-27T11:20:38;99304.22;;;26.10;24.93
42691;BME280;28306;55.744;37.578;2023-04-27T11:23:03;99322.28;;;26.00;25.24
42691;BME280;28306;55.744;37.578;2023-04-27T11:25:29;99332.38;;;25.89;25.94
42691;BME280;28306;55.744;37.578;2023-04-27T11:27:54;99328.91;;;25.73;27.85
42691;BME280;28306;55.744;37.578;2023-04-27T11:30:20;99328.97;;;25.58;27.43
42691;BME280;28306;55.744;37.578;2023-04-27T11:32:46;99323.03;;;25.46;27.78
42691;BME280;28306;55.744;37.578;2023-04-27T11:35:12;99326.88;;;25.34;28.14
42691;BME280;28306;55.744;37.578;2023-04-27T11:37:38;99326.84;;;25.40;28.82
42691;BME280;28306;55.744;37.578;2023-04-27T11:40:03;99325.47;;;25.42;29.93
42691;BME280;28306;55.744;37.578;2023-04-27T11:42:29;99320.56;;;25.39;29.50
42691;BME280;28306;55.744;37.578;2023-04-27T11:45:02;99316.47;;;25.42;29.98
42691;BME280;28306;55.744;37.578;2023-04-27T11:47:30;99308.56;;;25.45;28.19
42691;BME280;28306;55.744;37.578;2023-04-27T11:49:57;99308.81;;;25.54;28.59
42691;BME280;28306;55.744;37.578;2023-04-27T11:52:27;99307.97;;;25.64;27.99
42691;BME280;28306;55.744;37.578;2023-04-27T11:54:53;99306.28;;;25.73;28.54
42691;BME280;28306;55.744;37.578;2023-04-27T11:57:27;99298.34;;;25.82;28.07
42691;BME280;28306;55.744;37.578;2023-04-27T11:59:54;99288.22;;;25.93;27.77
42691;BME280;28306;55.744;37.578;2023-04-27T12:02:19;99289.25;;;26.02;27.33
42691;BME280;28306;55.744;37.578;2023-04-27T12:04:49;99293.28;;;26.15;27.00
42691;BME280;28306;55.744;37.578;2023-04-27T12:07:15;99289.69;;;26.24;26.99
42691;BME280;28306;55.744;37.578;2023-04-27T12:09:41;99285.78;;;26.36;26.79
42691;BME280;28306;55.744;37.578;2023-04-27T12:12:06;99285.66;;;26.51;26.77
42691;BME280;28306;55.744;37.578;2023-04-27T12:14:32;99290.00;;;27.45;25.87
42691;BME280;28306;55.744;37.578;2023-04-27T12:16:57;99279.13;;;28.92;24.29
42691;BME280;28306;55.744;37.578;2023-04-27T12:19:23;99277.75;;;30.15;23.34
42691;BME280;28306;55.744;37.578;2023-04-27T12:21:50;99275.13;;;30.78;22.40
42691;BME280;28306;55.744;37.578;2023-04-27T12:24:16;99278.56;;;31.55;21.65
42691;BME280;28306;55.744;37.578;2023-04-27T12:26:42;99271.88;;;32.31;20.84
42691;BME280;28306;55.744;37.578;2023-04-27T12:29:07;99273.47;;;32.67;20.73
42691;BME280;28306;55.744;37.578;2023-04-27T12:31:32;99274.59;;;32.75;20.57
42691;BME280;28306;55.744;37.578;2023-04-27T12:33:58;99271.09;;;33.04;20.38
42691;BME280;28306;55.744;37.578;2023-04-27T12:36:24;99271.44;;;33.41;19.97
42691;BME280;28306;55.744;37.578;2023-04-27T12:38:56;99271.31;;;33.37;19.69
42691;BME280;28306;55.744;37.578;2023-04-27T12:41:22;99267.19;;;33.05;19.03
42691;BME280;28306;55.744;37.578;2023-04-27T12:43:48;99275.91;;;32.51;19.01
42691;BME280;28306;55.744;37.578;2023-04-27T12:46:14;99273.50;;;32.41;20.07
42691;BME280;28306;55.744;37.578;2023-04-27T12:48:40;99264.38;;;32.75;20.28
42691;BME280;28306;55.744;37.578;2023-04-27T12:51:05;99259.22;;;33.21;20.31
42691;BME280;28306;55.744;37.578;2023-04-27T12:53:31;99261.84;;;33.68;19.38
42691;BME280;28306;55.744;37.578;2023-04-27T12:55:56;99263.06;;;34.09;19.66
42691;BME280;28306;55.744;37.578;2023-04-27T12:58:24;99259.81;;;34.62;19.17
42691;BME280;28306;55.744;37.578;2023-04-27T13:00:50;99260.72;;;35.12;19.69
42691;BME280;28306;55.744;37.578;2023-04-27T13:03:16;99255.69;;;35.51;18.54